Terminal Aerodrome Forecast
Issued by NWS Albany, NY

Home | Current Version | Previous Version | Text Only | Print | Product List | Glossary On
Versions: 1 2 3 4 5 6 7 8 9 10 11 12 13 14 15 16 17 18 19 20 21 22 23 24
577
FTUS41 KALY 281134
TAFGFL
TAF
KGFL 281134Z 2812/2912 21009KT P6SM BKN010 OVC030
      TEMPO 2812/2813 BKN009 OVC030
     FM281400 21007KT P6SM BKN040
     FM281700 21005KT P6SM SCT100
     FM290700 21005KT P6SM BKN100 PROB30 2910/2912 4SM -SHRA OVC040=

USA.gov is the U.S. government's official web portal to all federal, state and local government web resources and services.